sensor_id;sensor_type;location;lat;lon;timestamp;P1;durP1;ratioP1;P2;durP2;ratioP2
12762;SDS011;6445;52.490;13.378;2022-12-24T00:02:05;21.15;;;11.45;;
12762;SDS011;6445;52.490;13.378;2022-12-24T00:04:30;23.00;;;11.38;;
12762;SDS011;6445;52.490;13.378;2022-12-24T00:06:56;17.52;;;11.15;;
12762;SDS011;6445;52.490;13.378;2022-12-24T00:09:21;19.05;;;11.65;;
12762;SDS011;6445;52.490;13.378;2022-12-24T00:11:46;20.48;;;10.90;;
12762;SDS011;6445;52.490;13.378;2022-12-24T00:14:11;19.60;;;11.18;;
12762;SDS011;6445;52.490;13.378;2022-12-24T00:16:37;17.52;;;10.23;;
12762;SDS011;6445;52.490;13.378;2022-12-24T00:19:02;17.75;;;11.05;;
12762;SDS011;6445;52.490;13.378;2022-12-24T00:21:27;18.88;;;10.90;;
12762;SDS011;6445;52.490;13.378;2022-12-24T00:23:52;17.48;;;11.18;;
12762;SDS011;6445;52.490;13.378;2022-12-24T00:26:18;19.83;;;10.95;;
12762;SDS011;6445;52.490;13.378;2022-12-24T00:28:43;16.40;;;10.68;;
12762;SDS011;6445;52.490;13.378;2022-12-24T00:31:09;17.23;;;10.73;;
12762;SDS011;6445;52.490;13.378;2022-12-24T00:33:39;18.05;;;10.30;;
12762;SDS011;6445;52.490;13.378;2022-12-24T00:36:05;17.00;;;10.60;;
12762;SDS011;6445;52.490;13.378;2022-12-24T00:38:31;15.02;;;10.07;;
12762;SDS011;6445;52.490;13.378;2022-12-24T00:40:57;15.38;;;9.80;;
12762;SDS011;6445;52.490;13.378;2022-12-24T00:43:24;16.88;;;10.18;;
12762;SDS011;6445;52.490;13.378;2022-12-24T00:45:49;20.80;;;9.68;;
12762;SDS011;6445;52.490;13.378;2022-12-24T00:48:15;19.00;;;10.10;;
12762;SDS011;6445;52.490;13.378;2022-12-24T00:50:40;15.80;;;10.73;;
12762;SDS011;6445;52.490;13.378;2022-12-24T00:53:05;14.57;;;10.45;;
12762;SDS011;6445;52.490;13.378;2022-12-24T00:55:30;15.80;;;10.13;;
12762;SDS011;6445;52.490;13.378;2022-12-24T00:57:56;16.77;;;10.27;;
12762;SDS011;6445;52.490;13.378;2022-12-24T01:00:21;15.90;;;10.25;;
12762;SDS011;6445;52.490;13.378;2022-12-24T01:02:46;16.83;;;10.20;;
12762;SDS011;6445;52.490;13.378;2022-12-24T01:05:11;15.75;;;9.68;;
12762;SDS011;6445;52.490;13.378;2022-12-24T01:07:37;17.80;;;10.23;;
12762;SDS011;6445;52.490;13.378;2022-12-24T01:10:05;17.20;;;10.15;;
12762;SDS011;6445;52.490;13.378;2022-12-24T01:12:32;15.48;;;10.32;;
12762;SDS011;6445;52.490;13.378;2022-12-24T01:14:58;15.65;;;9.93;;
12762;SDS011;6445;52.490;13.378;2022-12-24T01:17:23;16.25;;;9.90;;
12762;SDS011;6445;52.490;13.378;2022-12-24T01:19:48;13.95;;;9.45;;
12762;SDS011;6445;52.490;13.378;2022-12-24T01:22:13;14.50;;;9.63;;
12762;SDS011;6445;52.490;13.378;2022-12-24T01:24:39;15.48;;;9.63;;
12762;SDS011;6445;52.490;13.378;2022-12-24T01:27:05;19.35;;;10.65;;
12762;SDS011;6445;52.490;13.378;2022-12-24T01:29:30;14.15;;;9.13;;
12762;SDS011;6445;52.490;13.378;2022-12-24T01:31:55;14.32;;;9.60;;
12762;SDS011;6445;52.490;13.378;2022-12-24T01:34:21;14.30;;;9.73;;
12762;SDS011;6445;52.490;13.378;2022-12-24T01:36:46;14.55;;;9.70;;
12762;SDS011;6445;52.490;13.378;2022-12-24T01:39:11;14.57;;;8.75;;
12762;SDS011;6445;52.490;13.378;2022-12-24T01:41:36;16.35;;;10.00;;
12762;SDS011;6445;52.490;13.378;2022-12-24T01:44:21;14.45;;;9.68;;
12762;SDS011;6445;52.490;13.378;2022-12-24T01:47:14;14.77;;;9.00;;
12762;SDS011;6445;52.490;13.378;2022-12-24T01:49:43;13.63;;;9.63;;
12762;SDS011;6445;52.490;13.378;2022-12-24T01:52:12;17.92;;;10.00;;
12762;SDS011;6445;52.490;13.378;2022-12-24T01:54:55;14.65;;;9.90;;
12762;SDS011;6445;52.490;13.378;2022-12-24T01:57:25;16.27;;;9.55;;
12762;SDS011;6445;52.490;13.378;2022-12-24T01:59:54;16.77;;;9.85;;
12762;SDS011;6445;52.490;13.378;2022-12-24T02:02:22;14.43;;;9.68;;
12762;SDS011;6445;52.490;13.378;2022-12-24T02:05:02;16.20;;;9.63;;
12762;SDS011;6445;52.490;13.378;2022-12-24T02:07:32;16.55;;;10.20;;
12762;SDS011;6445;52.490;13.378;2022-12-24T02:09:58;14.55;;;9.52;;
12762;SDS011;6445;52.490;13.378;2022-12-24T02:12:25;14.85;;;9.60;;
12762;SDS011;6445;52.490;13.378;2022-12-24T02:14:53;17.42;;;9.73;;
12762;SDS011;6445;52.490;13.378;2022-12-24T02:20:02;19.15;;;11.18;;
12762;SDS011;6445;52.490;13.378;2022-12-24T02:23:01;17.13;;;10.07;;
12762;SDS011;6445;52.490;13.378;2022-12-24T02:28:42;19.52;;;10.43;;
12762;SDS011;6445;52.490;13.378;2022-12-24T02:31:36;16.85;;;9.68;;
12762;SDS011;6445;52.490;13.378;2022-12-24T02:34:11;16.50;;;10.35;;
12762;SDS011;6445;52.490;13.378;2022-12-24T02:36:58;19.50;;;10.95;;
12762;SDS011;6445;52.490;13.378;2022-12-24T02:39:33;16.73;;;10.35;;
12762;SDS011;6445;52.490;13.378;2022-12-24T02:42:00;16.45;;;11.23;;
12762;SDS011;6445;52.490;13.378;2022-12-24T02:44:30;15.50;;;10.65;;
12762;SDS011;6445;52.490;13.378;2022-12-24T02:47:00;17.77;;;11.50;;
12762;SDS011;6445;52.490;13.378;2022-12-24T02:49:28;18.23;;;12.20;;
12762;SDS011;6445;52.490;13.378;2022-12-24T02:51:54;18.45;;;11.75;;
12762;SDS011;6445;52.490;13.378;2022-12-24T02:54:19;18.10;;;11.43;;
12762;SDS011;6445;52.490;13.378;2022-12-24T02:59:33;15.45;;;10.93;;
12762;SDS011;6445;52.490;13.378;2022-12-24T03:02:23;21.67;;;11.45;;
12762;SDS011;6445;52.490;13.378;2022-12-24T03:08:15;19.80;;;12.00;;
12762;SDS011;6445;52.490;13.378;2022-12-24T03:13:17;23.05;;;13.18;;
12762;SDS011;6445;52.490;13.378;2022-12-24T03:15:44;19.88;;;12.88;;
12762;SDS011;6445;52.490;13.378;2022-12-24T03:18:11;18.60;;;11.68;;
12762;SDS011;6445;52.490;13.378;2022-12-24T03:20:40;20.27;;;12.75;;
12762;SDS011;6445;52.490;13.378;2022-12-24T03:23:07;21.23;;;12.40;;
12762;SDS011;6445;52.490;13.378;2022-12-24T03:25:33;18.05;;;12.73;;
12762;SDS011;6445;52.490;13.378;2022-12-24T03:28:02;20.10;;;12.90;;
12762;SDS011;6445;52.490;13.378;2022-12-24T03:30:30;21.35;;;13.05;;
12762;SDS011;6445;52.490;13.378;2022-12-24T03:32:56;20.33;;;12.93;;
12762;SDS011;6445;52.490;13.378;2022-12-24T03:35:22;20.00;;;12.63;;
12762;SDS011;6445;52.490;13.378;2022-12-24T03:37:47;21.55;;;12.60;;
12762;SDS011;6445;52.490;13.378;2022-12-24T03:40:12;23.95;;;12.43;;
12762;SDS011;6445;52.490;13.378;2022-12-24T03:42:38;21.95;;;13.20;;
12762;SDS011;6445;52.490;13.378;2022-12-24T03:45:03;20.33;;;12.98;;
12762;SDS011;6445;52.490;13.378;2022-12-24T03:47:29;23.08;;;13.73;;
12762;SDS011;6445;52.490;13.378;2022-12-24T03:49:55;23.13;;;14.43;;
12762;SDS011;6445;52.490;13.378;2022-12-24T03:52:20;20.95;;;13.45;;
12762;SDS011;6445;52.490;13.378;2022-12-24T03:54:45;22.88;;;14.13;;
12762;SDS011;6445;52.490;13.378;2022-12-24T03:57:11;22.58;;;13.57;;
12762;SDS011;6445;52.490;13.378;2022-12-24T03:59:36;22.20;;;13.55;;
12762;SDS011;6445;52.490;13.378;2022-12-24T04:02:01;20.88;;;13.85;;
12762;SDS011;6445;52.490;13.378;2022-12-24T04:04:26;22.10;;;13.63;;
12762;SDS011;6445;52.490;13.378;2022-12-24T04:06:52;22.17;;;14.60;;
12762;SDS011;6445;52.490;13.378;2022-12-24T04:09:17;23.67;;;13.68;;
12762;SDS011;6445;52.490;13.378;2022-12-24T04:11:42;23.50;;;13.20;;
12762;SDS011;6445;52.490;13.378;2022-12-24T04:14:07;21.60;;;13.57;;
12762;SDS011;6445;52.490;13.378;2022-12-24T04:16:33;23.25;;;13.63;;
12762;SDS011;6445;52.490;13.378;2022-12-24T04:18:58;21.55;;;12.82;;
12762;SDS011;6445;52.490;13.378;2022-12-24T04:21:23;21.63;;;13.75;;
12762;SDS011;6445;52.490;13.378;2022-12-24T04:23:48;24.08;;;13.70;;
12762;SDS011;6445;52.490;13.378;2022-12-24T04:26:14;23.58;;;13.35;;
12762;SDS011;6445;52.490;13.378;2022-12-24T04:28:40;23.08;;;13.85;;
12762;SDS011;6445;52.490;13.378;2022-12-24T04:31:15;22.48;;;13.35;;
12762;SDS011;6445;52.490;13.378;2022-12-24T04:33:41;22.88;;;13.07;;
12762;SDS011;6445;52.490;13.378;2022-12-24T04:36:07;18.90;;;12.85;;
12762;SDS011;6445;52.490;13.378;2022-12-24T04:38:36;22.08;;;13.05;;
12762;SDS011;6445;52.490;13.378;2022-12-24T04:41:06;22.88;;;12.98;;
12762;SDS011;6445;52.490;13.378;2022-12-24T04:43:33;21.65;;;12.90;;
12762;SDS011;6445;52.490;13.378;2022-12-24T04:46:05;21.63;;;12.52;;
12762;SDS011;6445;52.490;13.378;2022-12-24T04:48:32;22.60;;;12.90;;
12762;SDS011;6445;52.490;13.378;2022-12-24T04:50:59;18.02;;;12.00;;
12762;SDS011;6445;52.490;13.378;2022-12-24T04:53:26;20.70;;;12.55;;
12762;SDS011;6445;52.490;13.378;2022-12-24T04:55:51;21.35;;;13.18;;
12762;SDS011;6445;52.490;13.378;2022-12-24T04:58:16;21.30;;;13.02;;
12762;SDS011;6445;52.490;13.378;2022-12-24T05:00:41;23.05;;;13.20;;
12762;SDS011;6445;52.490;13.378;2022-12-24T05:03:07;18.92;;;12.23;;
12762;SDS011;6445;52.490;13.378;2022-12-24T05:05:32;22.15;;;13.15;;
12762;SDS011;6445;52.490;13.378;2022-12-24T05:07:57;22.35;;;13.32;;
12762;SDS011;6445;52.490;13.378;2022-12-24T05:10:22;21.90;;;12.95;;
12762;SDS011;6445;52.490;13.378;2022-12-24T05:12:48;22.65;;;12.98;;
12762;SDS011;6445;52.490;13.378;2022-12-24T05:15:13;21.73;;;13.15;;
12762;SDS011;6445;52.490;13.378;2022-12-24T05:17:38;20.67;;;13.45;;
12762;SDS011;6445;52.490;13.378;2022-12-24T05:20:04;21.10;;;13.32;;
12762;SDS011;6445;52.490;13.378;2022-12-24T05:22:29;21.88;;;13.27;;
12762;SDS011;6445;52.490;13.378;2022-12-24T05:25:13;19.23;;;13.52;;
12762;SDS011;6445;52.490;13.378;2022-12-24T05:27:57;24.05;;;14.05;;
12762;SDS011;6445;52.490;13.378;2022-12-24T05:30:22;19.25;;;12.95;;
12762;SDS011;6445;52.490;13.378;2022-12-24T05:32:48;21.08;;;13.15;;
12762;SDS011;6445;52.490;13.378;2022-12-24T05:35:13;24.92;;;14.23;;
12762;SDS011;6445;52.490;13.378;2022-12-24T05:37:38;19.42;;;12.65;;
12762;SDS011;6445;52.490;13.378;2022-12-24T05:40:04;22.83;;;13.75;;
12762;SDS011;6445;52.490;13.378;2022-12-24T05:42:29;25.60;;;14.40;;
12762;SDS011;6445;52.490;13.378;2022-12-24T05:44:54;23.27;;;14.00;;
12762;SDS011;6445;52.490;13.378;2022-12-24T05:47:20;21.67;;;13.45;;
12762;SDS011;6445;52.490;13.378;2022-12-24T05:49:45;23.02;;;13.75;;
12762;SDS011;6445;52.490;13.378;2022-12-24T05:52:10;28.35;;;15.13;;
12762;SDS011;6445;52.490;13.378;2022-12-24T05:54:35;24.90;;;14.52;;
12762;SDS011;6445;52.490;13.378;2022-12-24T05:57:01;21.83;;;13.88;;
12762;SDS011;6445;52.490;13.378;2022-12-24T05:59:26;25.55;;;14.68;;
12762;SDS011;6445;52.490;13.378;2022-12-24T06:01:51;21.90;;;13.35;;
12762;SDS011;6445;52.490;13.378;2022-12-24T06:04:16;24.13;;;14.07;;
12762;SDS011;6445;52.490;13.378;2022-12-24T06:06:42;25.15;;;13.82;;
12762;SDS011;6445;52.490;13.378;2022-12-24T06:09:07;22.67;;;13.75;;
12762;SDS011;6445;52.490;13.378;2022-12-24T06:11:32;23.98;;;14.88;;
12762;SDS011;6445;52.490;13.378;2022-12-24T06:13:57;27.98;;;15.73;;
12762;SDS011;6445;52.490;13.378;2022-12-24T06:16:23;27.70;;;15.60;;
12762;SDS011;6445;52.490;13.378;2022-12-24T06:18:49;26.00;;;15.25;;
12762;SDS011;6445;52.490;13.378;2022-12-24T06:21:15;24.55;;;15.07;;
12762;SDS011;6445;52.490;13.378;2022-12-24T06:23:41;26.80;;;15.88;;
12762;SDS011;6445;52.490;13.378;2022-12-24T06:26:08;26.80;;;16.00;;
12762;SDS011;6445;52.490;13.378;2022-12-24T06:28:36;24.50;;;15.10;;
12762;SDS011;6445;52.490;13.378;2022-12-24T06:31:02;31.77;;;15.70;;
12762;SDS011;6445;52.490;13.378;2022-12-24T06:33:28;28.30;;;15.65;;
12762;SDS011;6445;52.490;13.378;2022-12-24T06:35:54;26.02;;;14.98;;
12762;SDS011;6445;52.490;13.378;2022-12-24T06:38:19;24.73;;;14.95;;
12762;SDS011;6445;52.490;13.378;2022-12-24T06:40:45;24.90;;;14.77;;
12762;SDS011;6445;52.490;13.378;2022-12-24T06:43:11;27.42;;;14.95;;
12762;SDS011;6445;52.490;13.378;2022-12-24T06:45:37;22.20;;;14.38;;
12762;SDS011;6445;52.490;13.378;2022-12-24T06:48:03;27.05;;;14.93;;
12762;SDS011;6445;52.490;13.378;2022-12-24T06:50:29;24.92;;;14.68;;
12762;SDS011;6445;52.490;13.378;2022-12-24T06:52:54;23.58;;;14.98;;
12762;SDS011;6445;52.490;13.378;2022-12-24T06:55:19;26.45;;;15.32;;
12762;SDS011;6445;52.490;13.378;2022-12-24T06:57:44;24.73;;;15.00;;
12762;SDS011;6445;52.490;13.378;2022-12-24T07:00:10;24.48;;;14.88;;
12762;SDS011;6445;52.490;13.378;2022-12-24T07:02:39;23.80;;;14.48;;
12762;SDS011;6445;52.490;13.378;2022-12-24T07:05:08;26.50;;;15.07;;
12762;SDS011;6445;52.490;13.378;2022-12-24T07:07:38;27.20;;;15.30;;
12762;SDS011;6445;52.490;13.378;2022-12-24T07:10:07;24.88;;;14.98;;
12762;SDS011;6445;52.490;13.378;2022-12-24T07:12:35;27.13;;;14.57;;
12762;SDS011;6445;52.490;13.378;2022-12-24T07:15:01;24.80;;;14.63;;
12762;SDS011;6445;52.490;13.378;2022-12-24T07:17:26;22.90;;;13.80;;
12762;SDS011;6445;52.490;13.378;2022-12-24T07:19:52;24.50;;;15.13;;
12762;SDS011;6445;52.490;13.378;2022-12-24T07:22:17;25.65;;;14.80;;
12762;SDS011;6445;52.490;13.378;2022-12-24T07:24:42;24.15;;;14.02;;
12762;SDS011;6445;52.490;13.378;2022-12-24T07:27:07;22.58;;;14.10;;
12762;SDS011;6445;52.490;13.378;2022-12-24T07:29:33;26.13;;;13.88;;
12762;SDS011;6445;52.490;13.378;2022-12-24T07:31:58;23.08;;;14.13;;
12762;SDS011;6445;52.490;13.378;2022-12-24T07:34:23;26.85;;;14.65;;
12762;SDS011;6445;52.490;13.378;2022-12-24T07:36:49;63.53;;;43.58;;
12762;SDS011;6445;52.490;13.378;2022-12-24T07:39:14;25.17;;;14.82;;
12762;SDS011;6445;52.490;13.378;2022-12-24T07:41:39;25.30;;;15.02;;
12762;SDS011;6445;52.490;13.378;2022-12-24T07:44:04;25.15;;;14.88;;
12762;SDS011;6445;52.490;13.378;2022-12-24T07:46:30;25.10;;;14.90;;
12762;SDS011;6445;52.490;13.378;2022-12-24T07:48:55;26.27;;;15.15;;
12762;SDS011;6445;52.490;13.378;2022-12-24T07:51:20;25.52;;;15.68;;
12762;SDS011;6445;52.490;13.378;2022-12-24T07:53:45;26.85;;;15.20;;
12762;SDS011;6445;52.490;13.378;2022-12-24T07:56:12;26.83;;;16.70;;
12762;SDS011;6445;52.490;13.378;2022-12-24T07:58:40;24.00;;;14.80;;
12762;SDS011;6445;52.490;13.378;2022-12-24T08:01:06;24.42;;;16.27;;
12762;SDS011;6445;52.490;13.378;2022-12-24T08:03:32;26.73;;;15.38;;
12762;SDS011;6445;52.490;13.378;2022-12-24T08:05:57;24.75;;;15.25;;
12762;SDS011;6445;52.490;13.378;2022-12-24T08:08:23;28.33;;;15.15;;
12762;SDS011;6445;52.490;13.378;2022-12-24T08:10:51;25.45;;;14.95;;
12762;SDS011;6445;52.490;13.378;2022-12-24T08:13:16;24.92;;;15.32;;
12762;SDS011;6445;52.490;13.378;2022-12-24T08:15:42;26.73;;;14.93;;
12762;SDS011;6445;52.490;13.378;2022-12-24T08:18:08;27.83;;;15.40;;
12762;SDS011;6445;52.490;13.378;2022-12-24T08:20:35;28.98;;;16.20;;
12762;SDS011;6445;52.490;13.378;2022-12-24T08:23:02;27.50;;;15.85;;
12762;SDS011;6445;52.490;13.378;2022-12-24T08:25:27;29.65;;;15.98;;
12762;SDS011;6445;52.490;13.378;2022-12-24T08:27:52;27.67;;;15.65;;
12762;SDS011;6445;52.490;13.378;2022-12-24T08:30:18;26.77;;;15.70;;
12762;SDS011;6445;52.490;13.378;2022-12-24T08:32:43;26.85;;;15.50;;
12762;SDS011;6445;52.490;13.378;2022-12-24T08:35:09;29.13;;;15.88;;
12762;SDS011;6445;52.490;13.378;2022-12-24T08:37:34;32.78;;;16.77;;
12762;SDS011;6445;52.490;13.378;2022-12-24T08:39:59;27.30;;;16.55;;
12762;SDS011;6445;52.490;13.378;2022-12-24T08:42:24;27.75;;;16.17;;
12762;SDS011;6445;52.490;13.378;2022-12-24T08:44:50;29.50;;;16.80;;
12762;SDS011;6445;52.490;13.378;2022-12-24T08:47:15;33.50;;;17.13;;
12762;SDS011;6445;52.490;13.378;2022-12-24T08:49:40;29.27;;;15.75;;
12762;SDS011;6445;52.490;13.378;2022-12-24T08:52:05;32.05;;;16.88;;
12762;SDS011;6445;52.490;13.378;2022-12-24T08:54:31;29.10;;;16.45;;
12762;SDS011;6445;52.490;13.378;2022-12-24T08:56:56;31.80;;;17.42;;
12762;SDS011;6445;52.490;13.378;2022-12-24T08:59:21;34.28;;;17.77;;
12762;SDS011;6445;52.490;13.378;2022-12-24T09:01:46;33.05;;;18.48;;
12762;SDS011;6445;52.490;13.378;2022-12-24T09:04:12;29.05;;;17.00;;
12762;SDS011;6445;52.490;13.378;2022-12-24T09:06:37;30.58;;;17.10;;
12762;SDS011;6445;52.490;13.378;2022-12-24T09:09:02;32.42;;;17.88;;
12762;SDS011;6445;52.490;13.378;2022-12-24T09:11:29;33.53;;;18.05;;
12762;SDS011;6445;52.490;13.378;2022-12-24T09:13:54;30.42;;;17.00;;
12762;SDS011;6445;52.490;13.378;2022-12-24T09:16:19;34.28;;;17.85;;
12762;SDS011;6445;52.490;13.378;2022-12-24T09:18:45;28.67;;;16.52;;
12762;SDS011;6445;52.490;13.378;2022-12-24T09:21:12;28.73;;;16.92;;
12762;SDS011;6445;52.490;13.378;2022-12-24T09:23:39;31.42;;;16.80;;
12762;SDS011;6445;52.490;13.378;2022-12-24T09:26:09;32.83;;;16.73;;
12762;SDS011;6445;52.490;13.378;2022-12-24T09:28:38;30.88;;;17.60;;
12762;SDS011;6445;52.490;13.378;2022-12-24T09:31:03;28.52;;;16.33;;
12762;SDS011;6445;52.490;13.378;2022-12-24T09:33:31;30.73;;;16.90;;
12762;SDS011;6445;52.490;13.378;2022-12-24T09:36:00;28.85;;;18.20;;
12762;SDS011;6445;52.490;13.378;2022-12-24T09:38:27;28.02;;;16.45;;
12762;SDS011;6445;52.490;13.378;2022-12-24T09:40:53;28.50;;;16.63;;
12762;SDS011;6445;52.490;13.378;2022-12-24T09:43:20;27.45;;;16.33;;
12762;SDS011;6445;52.490;13.378;2022-12-24T09:45:59;27.05;;;15.45;;
12762;SDS011;6445;52.490;13.378;2022-12-24T09:48:31;50.30;;;28.90;;
12762;SDS011;6445;52.490;13.378;2022-12-24T09:51:04;57.88;;;37.65;;
12762;SDS011;6445;52.490;13.378;2022-12-24T09:56:30;26.00;;;16.05;;
12762;SDS011;6445;52.490;13.378;2022-12-24T09:59:02;31.23;;;16.13;;
12762;SDS011;6445;52.490;13.378;2022-12-24T10:01:30;25.02;;;15.23;;
12762;SDS011;6445;52.490;13.378;2022-12-24T10:04:10;30.48;;;16.08;;
12762;SDS011;6445;52.490;13.378;2022-12-24T10:09:40;24.08;;;15.57;;
12762;SDS011;6445;52.490;13.378;2022-12-24T10:12:52;27.80;;;16.15;;
12762;SDS011;6445;52.490;13.378;2022-12-24T10:15:27;29.92;;;17.25;;
12762;SDS011;6445;52.490;13.378;2022-12-24T10:18:00;28.20;;;15.35;;
12762;SDS011;6445;52.490;13.378;2022-12-24T10:20:50;25.52;;;15.27;;
12762;SDS011;6445;52.490;13.378;2022-12-24T10:23:31;28.88;;;16.30;;
12762;SDS011;6445;52.490;13.378;2022-12-24T10:26:04;27.75;;;15.23;;
12762;SDS011;6445;52.490;13.378;2022-12-24T10:28:39;28.52;;;17.02;;
12762;SDS011;6445;52.490;13.378;2022-12-24T10:31:06;28.70;;;17.00;;
12762;SDS011;6445;52.490;13.378;2022-12-24T10:33:40;27.23;;;15.73;;
12762;SDS011;6445;52.490;13.378;2022-12-24T10:36:12;27.88;;;16.05;;
12762;SDS011;6445;52.490;13.378;2022-12-24T10:38:42;28.58;;;16.40;;
12762;SDS011;6445;52.490;13.378;2022-12-24T10:41:09;25.50;;;15.13;;
12762;SDS011;6445;52.490;13.378;2022-12-24T10:43:35;23.60;;;14.50;;
12762;SDS011;6445;52.490;13.378;2022-12-24T10:46:06;26.20;;;14.63;;
12762;SDS011;6445;52.490;13.378;2022-12-24T10:48:40;28.52;;;15.35;;
12762;SDS011;6445;52.490;13.378;2022-12-24T10:51:17;28.25;;;14.93;;
12762;SDS011;6445;52.490;13.378;2022-12-24T10:56:41;27.17;;;15.43;;
12762;SDS011;6445;52.490;13.378;2022-12-24T10:59:21;24.77;;;14.65;;
12762;SDS011;6445;52.490;13.378;2022-12-24T11:01:47;26.95;;;14.88;;
12762;SDS011;6445;52.490;13.378;2022-12-24T11:04:18;22.90;;;13.65;;
12762;SDS011;6445;52.490;13.378;2022-12-24T11:09:32;22.33;;;12.68;;
12762;SDS011;6445;52.490;13.378;2022-12-24T11:12:15;23.30;;;13.75;;
12762;SDS011;6445;52.490;13.378;2022-12-24T11:14:43;21.80;;;13.40;;
12762;SDS011;6445;52.490;13.378;2022-12-24T11:17:17;22.00;;;12.13;;
12762;SDS011;6445;52.490;13.378;2022-12-24T11:19:46;21.20;;;12.35;;
12762;SDS011;6445;52.490;13.378;2022-12-24T11:22:18;30.75;;;16.52;;
12762;SDS011;6445;52.490;13.378;2022-12-24T11:24:46;19.58;;;12.45;;
12762;SDS011;6445;52.490;13.378;2022-12-24T11:27:27;18.70;;;11.40;;
12762;SDS011;6445;52.490;13.378;2022-12-24T11:32:38;19.58;;;11.75;;
12762;SDS011;6445;52.490;13.378;2022-12-24T11:35:07;18.33;;;11.77;;
12762;SDS011;6445;52.490;13.378;2022-12-24T11:37:39;20.60;;;12.35;;
12762;SDS011;6445;52.490;13.378;2022-12-24T11:40:05;17.30;;;11.20;;
12762;SDS011;6445;52.490;13.378;2022-12-24T11:42:44;18.35;;;10.85;;
12762;SDS011;6445;52.490;13.378;2022-12-24T11:45:16;17.30;;;11.50;;
12762;SDS011;6445;52.490;13.378;2022-12-24T11:47:46;15.07;;;10.23;;
12762;SDS011;6445;52.490;13.378;2022-12-24T11:50:18;17.23;;;10.27;;
12762;SDS011;6445;52.490;13.378;2022-12-24T11:53:14;15.95;;;10.13;;
12762;SDS011;6445;52.490;13.378;2022-12-24T11:55:51;16.55;;;9.32;;
12762;SDS011;6445;52.490;13.378;2022-12-24T11:58:40;15.13;;;10.30;;
12762;SDS011;6445;52.490;13.378;2022-12-24T12:03:59;16.15;;;9.52;;
12762;SDS011;6445;52.490;13.378;2022-12-24T12:09:23;14.35;;;9.30;;
12762;SDS011;6445;52.490;13.378;2022-12-24T12:12:15;14.07;;;9.15;;
12762;SDS011;6445;52.490;13.378;2022-12-24T12:14:42;14.27;;;9.35;;
12762;SDS011;6445;52.490;13.378;2022-12-24T12:20:02;13.82;;;8.75;;
12762;SDS011;6445;52.490;13.378;2022-12-24T12:22:36;12.85;;;8.45;;
12762;SDS011;6445;52.490;13.378;2022-12-24T12:25:16;15.75;;;8.40;;
12762;SDS011;6445;52.490;13.378;2022-12-24T12:27:46;13.80;;;8.60;;
12762;SDS011;6445;52.490;13.378;2022-12-24T12:30:14;14.73;;;8.23;;
12762;SDS011;6445;52.490;13.378;2022-12-24T12:32:50;13.63;;;8.57;;
12762;SDS011;6445;52.490;13.378;2022-12-24T12:35:23;12.60;;;8.15;;
12762;SDS011;6445;52.490;13.378;2022-12-24T12:38:00;14.30;;;8.70;;
12762;SDS011;6445;52.490;13.378;2022-12-24T12:40:39;13.57;;;9.10;;
12762;SDS011;6445;52.490;13.378;2022-12-24T12:46:24;37.28;;;25.35;;
12762;SDS011;6445;52.490;13.378;2022-12-24T12:51:51;13.02;;;7.93;;
12762;SDS011;6445;52.490;13.378;2022-12-24T12:54:31;15.63;;;7.70;;
12762;SDS011;6445;52.490;13.378;2022-12-24T12:57:10;13.27;;;7.88;;
12762;SDS011;6445;52.490;13.378;2022-12-24T12:59:41;15.73;;;7.53;;
12762;SDS011;6445;52.490;13.378;2022-12-24T13:05:59;15.75;;;8.00;;
12762;SDS011;6445;52.490;13.378;2022-12-24T13:08:33;13.80;;;7.47;;
12762;SDS011;6445;52.490;13.378;2022-12-24T13:22:16;19.27;;;7.15;;
12762;SDS011;6445;52.490;13.378;2022-12-24T13:24:46;13.75;;;6.65;;
12762;SDS011;6445;52.490;13.378;2022-12-24T13:27:19;14.20;;;7.13;;
12762;SDS011;6445;52.490;13.378;2022-12-24T13:29:58;20.70;;;7.60;;
12762;SDS011;6445;52.490;13.378;2022-12-24T13:34:57;18.52;;;7.45;;
12762;SDS011;6445;52.490;13.378;2022-12-24T13:47:53;19.60;;;7.50;;
12762;SDS011;6445;52.490;13.378;2022-12-24T13:53:19;24.30;;;8.32;;
12762;SDS011;6445;52.490;13.378;2022-12-24T13:55:54;22.75;;;8.07;;
12762;SDS011;6445;52.490;13.378;2022-12-24T13:58:21;23.30;;;7.45;;
12762;SDS011;6445;52.490;13.378;2022-12-24T14:00:56;28.15;;;7.80;;
12762;SDS011;6445;52.490;13.378;2022-12-24T14:03:28;24.02;;;7.60;;
12762;SDS011;6445;52.490;13.378;2022-12-24T14:05:56;21.92;;;8.05;;
12762;SDS011;6445;52.490;13.378;2022-12-24T14:08:29;30.65;;;8.20;;
12762;SDS011;6445;52.490;13.378;2022-12-24T14:11:17;21.55;;;7.40;;
12762;SDS011;6445;52.490;13.378;2022-12-24T14:16:26;25.02;;;8.25;;
12762;SDS011;6445;52.490;13.378;2022-12-24T14:19:00;33.08;;;7.95;;
12762;SDS011;6445;52.490;13.378;2022-12-24T14:21:36;27.27;;;7.50;;
12762;SDS011;6445;52.490;13.378;2022-12-24T14:24:27;30.20;;;9.35;;
12762;SDS011;6445;52.490;13.378;2022-12-24T14:26:57;22.02;;;8.57;;
12762;SDS011;6445;52.490;13.378;2022-12-24T14:29:33;23.50;;;7.72;;
12762;SDS011;6445;52.490;13.378;2022-12-24T14:32:13;28.77;;;8.82;;
12762;SDS011;6445;52.490;13.378;2022-12-24T14:34:40;26.95;;;9.60;;
12762;SDS011;6445;52.490;13.378;2022-12-24T14:37:05;30.17;;;11.73;;
12762;SDS011;6445;52.490;13.378;2022-12-24T14:39:31;32.28;;;11.00;;
12762;SDS011;6445;52.490;13.378;2022-12-24T14:42:16;32.85;;;11.85;;
12762;SDS011;6445;52.490;13.378;2022-12-24T14:48:10;35.05;;;13.13;;
12762;SDS011;6445;52.490;13.378;2022-12-24T14:56:29;28.98;;;13.57;;
12762;SDS011;6445;52.490;13.378;2022-12-24T14:58:54;40.28;;;11.38;;
12762;SDS011;6445;52.490;13.378;2022-12-24T15:01:28;25.38;;;9.73;;
12762;SDS011;6445;52.490;13.378;2022-12-24T15:06:37;32.83;;;10.50;;
12762;SDS011;6445;52.490;13.378;2022-12-24T15:09:10;39.13;;;11.05;;
12762;SDS011;6445;52.490;13.378;2022-12-24T15:11:42;35.75;;;9.98;;
12762;SDS011;6445;52.490;13.378;2022-12-24T15:14:09;27.60;;;10.30;;
12762;SDS011;6445;52.490;13.378;2022-12-24T15:16:36;33.33;;;11.35;;
12762;SDS011;6445;52.490;13.378;2022-12-24T15:19:03;34.42;;;10.70;;
12762;SDS011;6445;52.490;13.378;2022-12-24T15:21:32;31.55;;;11.10;;
12762;SDS011;6445;52.490;13.378;2022-12-24T15:24:05;29.10;;;11.23;;
12762;SDS011;6445;52.490;13.378;2022-12-24T15:26:48;32.40;;;10.48;;
12762;SDS011;6445;52.490;13.378;2022-12-24T15:29:15;34.88;;;10.27;;
12762;SDS011;6445;52.490;13.378;2022-12-24T15:31:45;26.90;;;11.05;;
12762;SDS011;6445;52.490;13.378;2022-12-24T15:34:30;32.78;;;10.18;;
12762;SDS011;6445;52.490;13.378;2022-12-24T15:39:34;33.60;;;10.73;;
12762;SDS011;6445;52.490;13.378;2022-12-24T15:41:59;48.65;;;18.83;;
12762;SDS011;6445;52.490;13.378;2022-12-24T15:45:01;41.30;;;13.40;;
12762;SDS011;6445;52.490;13.378;2022-12-24T15:47:37;38.72;;;10.70;;
12762;SDS011;6445;52.490;13.378;2022-12-24T15:50:14;30.52;;;10.60;;
12762;SDS011;6445;52.490;13.378;2022-12-24T15:52:43;38.40;;;10.68;;
12762;SDS011;6445;52.490;13.378;2022-12-24T15:55:26;32.13;;;10.30;;
12762;SDS011;6445;52.490;13.378;2022-12-24T15:57:51;38.08;;;10.77;;
12762;SDS011;6445;52.490;13.378;2022-12-24T16:00:21;34.35;;;10.98;;
12762;SDS011;6445;52.490;13.378;2022-12-24T16:02:48;38.45;;;12.93;;
12762;SDS011;6445;52.490;13.378;2022-12-24T16:05:16;39.20;;;10.70;;
12762;SDS011;6445;52.490;13.378;2022-12-24T16:08:03;37.85;;;11.00;;